WXM80 ListenWXM80 Stop

You find our weather info also at:

UK Metoffice

WeatherCloud

Weather Underground

Northeastern Weather Network

AWEKAS

Citizen Weather Observer Program (CWOP)

HAMweather, WeatherForYou, PWS Weather


Weather Underground History page Text

Daily Summary for April 3, 2016 Units:  English    Metric   Both
« Previous Day
Next Day »
Daily Weekly Monthly Yearly Custom
  High: Low: Average:
Temperature: 48.1 °F 34.4 °F 38.6 °F
Dew Point: 46.4 °F 15.3 °F 26.7 °F
Humidity: 95 % 37 % 65 %
Wind Speed: 18.0 mph 0.1 mph 7.8 mph
Wind Gust: 35.0 mph - -
Wind:- - West
Pressure: 30.04 in 29.18 in -
Precipitation: 0.11 in    
Historical Graphs
 
 
Tabular Data for April 3, 2016
Time Temperature Dew Point Pressure Wind Wind Speed Wind Gust Humidity Rainfall Rate (Hourly)
00:00 48.0 °F 46.1 °F 29.29 in SSW 3.4 mph 6.0 mph 93 % 0.00 in
00:05 48.0 °F 46.1 °F 29.28 in SW 4.3 mph 6.9 mph 93 % 0.00 in
00:10 48.1 °F 46.2 °F 29.28 in South 2.7 mph 10.4 mph 93 % 0.00 in
00:15 48.1 °F 46.2 °F 29.28 in SW 6.9 mph 11.5 mph 93 % 0.00 in
00:20 48.1 °F 46.2 °F 29.27 in SSW 4.1 mph 6.0 mph 93 % 0.00 in
00:25 48.1 °F 46.2 °F 29.27 in SSW 3.2 mph 10.4 mph 93 % 0.00 in
00:30 48.1 °F 46.2 °F 29.26 in South 2.7 mph 4.6 mph 93 % 0.00 in
00:35 48.1 °F 46.2 °F 29.25 in SW 3.2 mph 6.9 mph 93 % 0.00 in
00:41 48.0 °F 46.4 °F 29.24 in ESE 0.6 mph 5.8 mph 94 % 0.00 in
00:46 48.0 °F 46.4 °F 29.23 in WSW 4.7 mph 6.9 mph 94 % 0.00 in
00:51 48.0 °F 46.4 °F 29.23 in SSW 6.0 mph 10.4 mph 94 % 0.00 in
01:01 48.0 °F 46.4 °F 29.21 in South 5.6 mph 10.4 mph 94 % 0.00 in
01:06 47.9 °F 46.3 °F 29.21 in SSW 2.2 mph 4.6 mph 94 % 0.00 in
01:11 47.9 °F 46.3 °F 29.20 in SSW 2.6 mph 7.0 mph 94 % 0.00 in
01:16 47.9 °F 46.3 °F 29.20 in South 4.7 mph 5.8 mph 94 % 0.00 in
01:21 47.8 °F 46.2 °F 29.20 in South 5.9 mph 10.4 mph 94 % 0.00 in
01:26 47.8 °F 45.9 °F 29.19 in South 3.9 mph 9.2 mph 93 % 0.00 in
01:32 47.9 °F 45.7 °F 29.18 in SW 4.8 mph 7.0 mph 92 % 0.00 in
01:37 47.9 °F 45.7 °F 29.19 in SSW 3.8 mph 7.0 mph 92 % 0.00 in
01:42 47.9 °F 45.7 °F 29.19 in SSW 6.9 mph 11.5 mph 92 % 0.00 in
01:47 47.9 °F 45.7 °F 29.19 in South 5.0 mph 6.9 mph 92 % 0.00 in
01:57 47.5 °F 44.7 °F 29.20 in SW 10.6 mph 15.0 mph 90 % 0.00 in
02:02 46.6 °F 43.8 °F 29.20 in South 8.1 mph 17.3 mph 90 % 0.01 in
02:07 46.0 °F 43.2 °F 29.21 in WSW 7.1 mph 16.1 mph 90 % 0.01 in
02:12 45.4 °F 42.9 °F 29.21 in WNW 7.7 mph 18.4 mph 91 % 0.01 in
02:17 44.7 °F 41.9 °F 29.19 in WNW 4.9 mph 8.1 mph 90 % 0.02 in
02:23 44.3 °F 41.8 °F 29.20 in NW 3.8 mph 9.0 mph 91 % 0.02 in
02:28 43.9 °F 41.4 °F 29.20 in NW 2.8 mph 8.1 mph 91 % 0.02 in
02:33 43.5 °F 41.3 °F 29.21 in WNW 4.6 mph 9.2 mph 92 % 0.03 in
02:38 43.3 °F 41.1 °F 29.21 in West 6.7 mph 10.4 mph 92 % 0.03 in
02:43 43.1 °F 41.2 °F 29.21 in SW 6.3 mph 9.2 mph 93 % 0.03 in
02:48 42.8 °F 40.9 °F 29.21 in WNW 5.0 mph 10.4 mph 93 % 0.03 in
02:53 42.7 °F 40.8 °F 29.22 in WNW 5.2 mph 9.2 mph 93 % 0.04 in
02:58 42.6 °F 41.0 °F 29.23 in West 10.8 mph 24.0 mph 94 % 0.04 in
03:03 42.0 °F 40.1 °F 29.24 in NW 11.1 mph 24.2 mph 93 % 0.03 in
03:08 40.8 °F 38.4 °F 29.25 in NW 9.5 mph 21.9 mph 91 % 0.04 in
03:14 40.0 °F 37.6 °F 29.24 in NNE 9.7 mph 20.7 mph 91 % 0.03 in
03:19 39.3 °F 36.9 °F 29.25 in NNW 9.4 mph 23.0 mph 91 % 0.04 in
03:24 38.9 °F 36.5 °F 29.23 in NNE 5.1 mph 15.0 mph 91 % 0.04 in
03:29 38.6 °F 36.5 °F 29.22 in NNW 4.8 mph 18.4 mph 92 % 0.04 in
03:34 38.4 °F 36.3 °F 29.23 in WNW 6.8 mph 17.3 mph 92 % 0.04 in
03:39 38.3 °F 36.2 °F 29.23 in NNW 6.0 mph 13.0 mph 92 % 0.05 in
03:44 38.1 °F 36.0 °F 29.24 in NNW 10.3 mph 17.3 mph 92 % 0.06 in
03:49 38.1 °F 36.0 °F 29.24 in NNW 3.9 mph 11.5 mph 92 % 0.06 in
03:54 38.0 °F 35.9 °F 29.24 in NNW 7.9 mph 11.5 mph 92 % 0.05 in
03:59 38.0 °F 35.9 °F 29.24 in NW 4.9 mph 11.5 mph 92 % 0.06 in
04:10 38.0 °F 35.9 °F 29.25 in West 4.7 mph 7.0 mph 92 % 0.05 in
04:15 38.0 °F 35.9 °F 29.25 in NNW 5.8 mph 9.2 mph 92 % 0.05 in
04:20 37.9 °F 35.5 °F 29.24 in WNW 3.6 mph 6.0 mph 91 % 0.04 in
04:25 37.9 °F 35.5 °F 29.25 in WSW 4.6 mph 9.2 mph 91 % 0.03 in
04:30 37.9 °F 35.8 °F 29.25 in WNW 1.6 mph 3.5 mph 92 % 0.03 in
04:35 37.9 °F 35.8 °F 29.25 in WSW 2.2 mph 8.1 mph 92 % 0.03 in
04:40 37.8 °F 35.7 °F 29.25 in SW 1.6 mph 3.5 mph 92 % 0.02 in
04:45 37.7 °F 35.6 °F 29.25 in SW 3.3 mph 8.1 mph 92 % 0.01 in
04:50 37.5 °F 35.4 °F 29.25 in WNW 4.6 mph 10.4 mph 92 % 0.01 in
04:56 37.4 °F 35.3 °F 29.25 in West 2.9 mph 5.8 mph 92 % 0.01 in
05:01 37.3 °F 35.5 °F 29.25 in WSW 2.5 mph 3.0 mph 93 % 0.00 in
05:06 37.2 °F 35.4 °F 29.25 in WSW 0.9 mph 2.3 mph 93 % 0.00 in
05:11 37.1 °F 35.3 °F 29.26 in West 0.7 mph 2.3 mph 93 % 0.00 in
05:16 37.2 °F 35.6 °F 29.26 in West 3.7 mph 9.0 mph 94 % 0.00 in
05:21 37.2 °F 35.6 °F 29.27 in WNW 5.2 mph 8.0 mph 94 % 0.00 in
05:26 37.1 °F 35.5 °F 29.27 in West 5.1 mph 10.4 mph 94 % 0.01 in
05:31 37.0 °F 35.4 °F 29.27 in West 5.8 mph 10.4 mph 94 % 0.01 in
05:36 37.0 °F 35.4 °F 29.27 in WSW 4.3 mph 10.0 mph 94 % 0.01 in
05:41 36.9 °F 35.3 °F 29.27 in WSW 7.7 mph 12.7 mph 94 % 0.01 in
05:47 36.6 °F 35.0 °F 29.28 in WNW 5.6 mph 11.5 mph 94 % 0.01 in
05:52 36.4 °F 34.8 °F 29.29 in WNW 6.0 mph 12.7 mph 94 % 0.01 in
05:57 36.0 °F 34.4 °F 29.31 in NW 8.3 mph 16.1 mph 94 % 0.01 in
06:02 35.7 °F 34.1 °F 29.32 in WNW 10.7 mph 16.1 mph 94 % 0.01 in
06:07 35.6 °F 34.0 °F 29.33 in NW 13.0 mph 16.1 mph 94 % 0.01 in
06:12 35.5 °F 33.9 °F 29.34 in WSW 7.6 mph 12.0 mph 94 % 0.01 in
06:17 35.2 °F 33.6 °F 29.34 in WSW 8.7 mph 16.1 mph 94 % 0.01 in
06:22 35.0 °F 33.7 °F 29.35 in West 5.9 mph 19.6 mph 95 % 0.00 in
06:27 35.0 °F 33.7 °F 29.36 in WNW 5.4 mph 12.7 mph 95 % 0.00 in
06:32 35.0 °F 33.7 °F 29.37 in WNW 9.3 mph 11.5 mph 95 % 0.00 in
06:38 34.9 °F 33.6 °F 29.38 in West 11.7 mph 20.7 mph 95 % 0.00 in
06:43 34.8 °F 33.5 °F 29.39 in NW 8.3 mph 23.0 mph 95 % 0.00 in
06:48 34.5 °F 33.2 °F 29.40 in NW 11.2 mph 16.1 mph 95 % 0.00 in
06:53 34.4 °F 33.1 °F 29.40 in WNW 7.3 mph 19.6 mph 95 % 0.00 in
06:58 34.6 °F 33.3 °F 29.41 in West 12.0 mph 25.0 mph 95 % 0.00 in
07:03 35.1 °F 33.8 °F 29.41 in SSW 13.4 mph 25.3 mph 95 % 0.00 in
07:08 35.6 °F 33.8 °F 29.42 in NW 10.1 mph 19.6 mph 93 % 0.00 in
07:13 36.0 °F 33.4 °F 29.43 in West 11.3 mph 19.6 mph 90 % 0.00 in
07:18 36.4 °F 33.2 °F 29.43 in West 14.1 mph 33.4 mph 88 % 0.00 in
07:23 36.6 °F 32.8 °F 29.45 in NW 12.0 mph 25.3 mph 86 % 0.00 in
07:29 36.7 °F 32.6 °F 29.46 in SW 12.1 mph 23.0 mph 85 % 0.00 in
07:34 36.6 °F 32.5 °F 29.47 in NW 14.9 mph 28.0 mph 85 % 0.00 in
07:39 36.6 °F 32.2 °F 29.48 in WNW 12.9 mph 27.0 mph 84 % 0.00 in
07:44 36.6 °F 32.2 °F 29.49 in WNW 11.9 mph 22.0 mph 84 % 0.00 in
07:49 36.5 °F 32.1 °F 29.49 in NW 11.7 mph 31.1 mph 84 % 0.00 in
07:54 36.3 °F 31.6 °F 29.50 in NW 14.9 mph 22.0 mph 83 % 0.00 in
07:59 36.1 °F 31.4 °F 29.51 in NNE 12.4 mph 27.6 mph 83 % 0.00 in
08:04 35.7 °F 30.4 °F 29.53 in NW 10.9 mph 26.5 mph 81 % 0.00 in
08:09 35.7 °F 31.0 °F 29.53 in NNW 14.0 mph 19.6 mph 83 % 0.00 in
08:14 35.5 °F 29.9 °F 29.54 in NW 10.7 mph 29.9 mph 80 % 0.00 in
08:20 35.5 °F 29.3 °F 29.55 in West 13.9 mph 23.0 mph 78 % 0.00 in
08:25 35.5 °F 29.6 °F 29.56 in WNW 10.1 mph 25.3 mph 79 % 0.00 in
08:30 35.9 °F 29.4 °F 29.55 in NW 14.1 mph 21.9 mph 77 % 0.00 in
08:35 36.2 °F 28.7 °F 29.56 in West 14.5 mph 31.1 mph 74 % 0.00 in
08:40 36.2 °F 28.0 °F 29.57 in SSW 15.1 mph 24.2 mph 72 % 0.00 in
08:45 36.2 °F 28.0 °F 29.57 in NW 8.4 mph 15.0 mph 72 % 0.00 in
08:50 36.2 °F 28.0 °F 29.58 in NW 11.9 mph 27.6 mph 72 % 0.00 in
08:55 36.1 °F 26.9 °F 29.58 in West 13.7 mph 31.1 mph 69 % 0.00 in
09:00 35.8 °F 26.6 °F 29.59 in NW 7.4 mph 20.7 mph 69 % 0.00 in
09:05 35.7 °F 25.4 °F 29.60 in NW 14.7 mph 28.8 mph 66 % 0.00 in
09:11 35.7 °F 25.4 °F 29.61 in West 16.0 mph 26.5 mph 66 % 0.00 in
09:25 36.1 °F 25.5 °F 29.62 in WNW 13.0 mph 33.0 mph 65 % 0.00 in
09:35 36.4 °F 25.0 °F 29.63 in WNW 10.0 mph 31.0 mph 63 % 0.00 in
09:45 36.4 °F 25.4 °F 29.64 in WNW 10.0 mph 32.0 mph 64 % 0.00 in
09:55 36.4 °F 25.7 °F 29.65 in WNW 10.0 mph 24.0 mph 65 % 0.00 in
10:05 36.3 °F 24.9 °F 29.66 in WNW 17.0 mph 28.0 mph 63 % 0.00 in
10:15 36.3 °F 24.5 °F 29.66 in WNW 16.0 mph 35.0 mph 62 % 0.00 in
10:35 36.6 °F 25.6 °F 29.68 in WNW 16.0 mph 32.0 mph 64 % 0.00 in
10:45 36.5 °F 23.5 °F 29.70 in WNW 17.0 mph 28.0 mph 59 % 0.00 in
10:55 36.9 °F 24.3 °F 29.70 in WNW 12.0 mph 26.0 mph 60 % 0.00 in
11:05 37.2 °F 23.4 °F 29.70 in WNW 14.0 mph 33.0 mph 57 % 0.00 in
11:15 37.4 °F 22.7 °F 29.71 in WNW 18.0 mph 29.0 mph 55 % 0.00 in
11:25 37.5 °F 21.9 °F 29.71 in WNW 15.0 mph 27.0 mph 53 % 0.00 in
11:35 37.5 °F 22.3 °F 29.72 in WNW 13.0 mph 28.0 mph 54 % 0.00 in
11:45 38.1 °F 22.0 °F 29.73 in West 13.0 mph 24.0 mph 52 % 0.00 in
11:55 38.1 °F 20.6 °F 29.74 in WNW 13.0 mph 30.0 mph 49 % 0.00 in
12:05 38.6 °F 23.8 °F 29.74 in WNW 12.0 mph 26.0 mph 55 % 0.00 in
12:15 38.9 °F 22.3 °F 29.73 in NW 12.0 mph 29.0 mph 51 % 0.00 in
12:25 38.7 °F 21.6 °F 29.74 in WNW 10.0 mph 27.0 mph 50 % 0.00 in
12:29 38.4 °F 22.7 °F 29.75 in NW 11.0 mph 35.0 mph 53 % 0.00 in
12:34 38.7 °F 21.6 °F 29.75 in WSW 16.6 mph 26.5 mph 50 % 0.00 in
12:39 38.9 °F 21.8 °F 29.76 in WNW 11.0 mph 26.5 mph 50 % 0.00 in
12:45 38.8 °F 21.7 °F 29.75 in SW 13.8 mph 18.0 mph 50 % 0.00 in
12:50 38.8 °F 20.8 °F 29.76 in NW 13.0 mph 18.4 mph 48 % 0.00 in
12:55 38.6 °F 21.5 °F 29.77 in West 11.0 mph 20.7 mph 50 % 0.00 in
13:00 38.7 °F 19.7 °F 29.77 in West 13.9 mph 26.5 mph 46 % 0.00 in
13:05 38.1 °F 20.1 °F 29.77 in NW 8.8 mph 17.3 mph 48 % 0.00 in
13:10 38.2 °F 20.2 °F 29.77 in WSW 12.3 mph 23.0 mph 48 % 0.00 in
13:15 38.6 °F 22.5 °F 29.77 in NW 7.8 mph 13.8 mph 52 % 0.00 in
13:20 39.2 °F 21.6 °F 29.77 in NW 8.6 mph 14.0 mph 49 % 0.00 in
13:25 39.6 °F 20.0 °F 29.78 in NW 15.0 mph 26.5 mph 45 % 0.00 in
13:30 39.5 °F 20.4 °F 29.78 in NW 12.2 mph 19.6 mph 46 % 0.00 in
13:36 39.2 °F 21.1 °F 29.78 in WNW 10.2 mph 16.0 mph 48 % 0.00 in
13:41 39.4 °F 18.7 °F 29.78 in NW 11.7 mph 21.9 mph 43 % 0.00 in
13:46 39.8 °F 19.6 °F 29.78 in NW 13.4 mph 24.2 mph 44 % 0.00 in
13:51 40.2 °F 20.5 °F 29.78 in SSW 10.2 mph 19.6 mph 45 % 0.00 in
13:56 40.1 °F 18.8 °F 29.78 in NW 10.3 mph 19.6 mph 42 % 0.00 in
14:01 39.9 °F 18.6 °F 29.79 in WSW 8.0 mph 19.6 mph 42 % 0.00 in
14:06 39.8 °F 19.6 °F 29.79 in West 13.5 mph 22.0 mph 44 % 0.00 in
14:11 39.7 °F 20.1 °F 29.79 in West 8.4 mph 17.3 mph 45 % 0.00 in
14:16 39.7 °F 18.5 °F 29.80 in NW 9.4 mph 18.4 mph 42 % 0.00 in
14:21 39.6 °F 18.9 °F 29.80 in WNW 14.0 mph 19.6 mph 43 % 0.00 in
14:27 39.8 °F 19.1 °F 29.81 in SW 11.2 mph 19.6 mph 43 % 0.00 in
14:32 39.9 °F 17.5 °F 29.81 in NW 12.8 mph 23.0 mph 40 % 0.00 in
14:42 39.8 °F 15.6 °F 29.81 in NW 11.4 mph 27.6 mph 37 % 0.00 in
14:47 40.0 °F 19.3 °F 29.81 in WNW 5.9 mph 12.7 mph 43 % 0.00 in
14:52 40.2 °F 18.3 °F 29.81 in WNW 11.9 mph 19.0 mph 41 % 0.00 in
14:57 40.0 °F 17.6 °F 29.81 in WNW 12.5 mph 20.0 mph 40 % 0.00 in
15:02 40.0 °F 17.0 °F 29.82 in NW 11.2 mph 21.9 mph 39 % 0.00 in
15:07 40.0 °F 17.0 °F 29.82 in NW 10.7 mph 17.3 mph 39 % 0.00 in
15:12 40.1 °F 17.7 °F 29.82 in NW 11.3 mph 19.6 mph 40 % 0.00 in
15:23 40.2 °F 17.2 °F 29.83 in NW 10.8 mph 20.7 mph 39 % 0.00 in
15:28 40.3 °F 18.4 °F 29.83 in WNW 10.1 mph 18.4 mph 41 % 0.00 in
15:33 40.2 °F 17.2 °F 29.83 in WNW 15.6 mph 21.9 mph 39 % 0.00 in
15:38 40.1 °F 17.7 °F 29.83 in NW 8.5 mph 12.7 mph 40 % 0.00 in
15:43 40.1 °F 18.3 °F 29.83 in NW 5.5 mph 11.5 mph 41 % 0.00 in
15:48 40.3 °F 17.9 °F 29.84 in NNW 7.5 mph 11.5 mph 40 % 0.00 in
15:53 40.5 °F 17.5 °F 29.84 in West 5.2 mph 13.0 mph 39 % 0.00 in
16:03 40.2 °F 16.6 °F 29.84 in WSW 10.9 mph 18.4 mph 38 % 0.00 in
16:09 40.1 °F 18.3 °F 29.85 in West 12.1 mph 28.0 mph 41 % 0.00 in
16:14 40.0 °F 16.4 °F 29.85 in WNW 6.1 mph 19.6 mph 38 % 0.00 in
16:19 39.8 °F 17.4 °F 29.85 in NNW 8.2 mph 14.0 mph 40 % 0.00 in
16:24 39.8 °F 16.8 °F 29.85 in WNW 11.6 mph 21.9 mph 39 % 0.00 in
16:29 39.6 °F 16.6 °F 29.85 in West 12.7 mph 20.7 mph 39 % 0.00 in
16:34 39.6 °F 17.2 °F 29.86 in NW 9.8 mph 17.0 mph 40 % 0.00 in
16:39 39.6 °F 17.2 °F 29.86 in NW 6.8 mph 15.0 mph 40 % 0.00 in
16:44 39.6 °F 16.6 °F 29.86 in West 11.5 mph 16.1 mph 39 % 0.00 in
16:49 39.5 °F 15.3 °F 29.86 in WNW 7.4 mph 19.6 mph 37 % 0.00 in
17:00 39.6 °F 17.2 °F 29.87 in NNW 8.3 mph 11.5 mph 40 % 0.00 in
17:05 39.6 °F 17.2 °F 29.87 in WNW 8.7 mph 19.6 mph 40 % 0.00 in
17:10 39.5 °F 18.3 °F 29.87 in WNW 6.7 mph 19.0 mph 42 % 0.00 in
17:15 39.6 °F 18.4 °F 29.88 in WNW 8.2 mph 17.3 mph 42 % 0.00 in
17:20 39.5 °F 17.1 °F 29.89 in NW 10.4 mph 21.9 mph 40 % 0.00 in
17:25 39.3 °F 16.4 °F 29.89 in NW 8.9 mph 17.0 mph 39 % 0.00 in
17:30 39.1 °F 17.4 °F 29.89 in WNW 6.5 mph 19.0 mph 41 % 0.00 in
17:35 38.9 °F 17.2 °F 29.89 in WNW 8.9 mph 15.0 mph 41 % 0.00 in
17:40 38.7 °F 18.1 °F 29.90 in WNW 9.4 mph 19.0 mph 43 % 0.00 in
17:45 38.5 °F 16.8 °F 29.90 in WNW 9.0 mph 17.3 mph 41 % 0.00 in
17:51 38.3 °F 18.3 °F 29.91 in WNW 8.6 mph 18.4 mph 44 % 0.00 in
17:56 38.2 °F 18.7 °F 29.91 in NNW 6.6 mph 14.0 mph 45 % 0.00 in
18:01 38.1 °F 17.0 °F 29.91 in NNW 10.2 mph 18.0 mph 42 % 0.00 in
18:06 38.1 °F 17.5 °F 29.92 in WNW 10.6 mph 16.1 mph 43 % 0.00 in
18:11 38.0 °F 18.0 °F 29.92 in West 7.4 mph 12.7 mph 44 % 0.00 in
18:16 37.9 °F 18.9 °F 29.92 in WNW 9.9 mph 15.0 mph 46 % 0.00 in
18:21 37.8 °F 17.3 °F 29.92 in NNW 10.9 mph 15.0 mph 43 % 0.00 in
18:26 37.7 °F 17.7 °F 29.92 in NW 11.0 mph 19.6 mph 44 % 0.00 in
18:31 37.7 °F 18.2 °F 29.92 in WNW 7.4 mph 11.5 mph 45 % 0.00 in
18:36 37.7 °F 17.7 °F 29.92 in NW 5.2 mph 12.7 mph 44 % 0.00 in
18:42 37.6 °F 17.1 °F 29.92 in WNW 10.1 mph 18.4 mph 43 % 0.00 in
18:47 37.5 °F 18.1 °F 29.92 in West 7.9 mph 11.5 mph 45 % 0.00 in
18:52 37.4 °F 19.0 °F 29.93 in North 7.1 mph 10.4 mph 47 % 0.00 in
18:57 37.3 °F 17.9 °F 29.93 in NW 5.0 mph 11.5 mph 45 % 0.00 in
19:02 37.3 °F 18.4 °F 29.93 in NW 5.8 mph 13.0 mph 46 % 0.00 in
19:07 37.3 °F 18.4 °F 29.94 in NNW 7.1 mph 13.0 mph 46 % 0.00 in
19:12 37.2 °F 17.8 °F 29.94 in WNW 7.6 mph 11.5 mph 45 % 0.00 in
19:17 37.1 °F 18.2 °F 29.94 in NW 8.9 mph 17.3 mph 46 % 0.00 in
19:22 37.1 °F 18.2 °F 29.94 in NW 6.6 mph 10.4 mph 46 % 0.00 in
19:27 37.0 °F 18.1 °F 29.94 in West 4.7 mph 11.5 mph 46 % 0.00 in
19:33 37.0 °F 17.6 °F 29.94 in North 5.6 mph 12.7 mph 45 % 0.00 in
19:38 36.9 °F 18.0 °F 29.95 in WNW 6.0 mph 9.2 mph 46 % 0.00 in
19:48 36.8 °F 17.9 °F 29.95 in WNW 3.1 mph 8.0 mph 46 % 0.00 in
19:53 36.7 °F 17.8 °F 29.96 in NW 5.6 mph 11.5 mph 46 % 0.00 in
19:58 36.6 °F 18.2 °F 29.96 in WNW 7.0 mph 11.5 mph 47 % 0.00 in
20:03 36.6 °F 18.2 °F 29.97 in NW 4.0 mph 6.9 mph 47 % 0.00 in
20:08 36.5 °F 19.1 °F 29.97 in North 4.8 mph 12.7 mph 49 % 0.00 in
20:13 36.5 °F 18.2 °F 29.97 in NNW 5.5 mph 10.4 mph 47 % 0.00 in
20:18 36.4 °F 18.6 °F 29.98 in WNW 6.9 mph 8.1 mph 48 % 0.00 in
20:24 36.4 °F 18.1 °F 29.97 in North 4.4 mph 11.5 mph 47 % 0.00 in
20:29 36.4 °F 18.6 °F 29.97 in NNW 2.6 mph 12.7 mph 48 % 0.00 in
20:34 36.4 °F 19.0 °F 29.98 in NW 4.5 mph 9.2 mph 49 % 0.00 in
20:44 36.2 °F 18.4 °F 29.99 in WNW 3.5 mph 4.6 mph 48 % 0.00 in
20:54 35.9 °F 18.1 °F 30.00 in NNE 3.8 mph 6.9 mph 48 % 0.00 in
20:59 35.9 °F 18.6 °F 30.00 in WNW 2.3 mph 4.0 mph 49 % 0.00 in
21:04 35.7 °F 18.9 °F 30.00 in North 4.8 mph 7.0 mph 50 % 0.00 in
21:09 35.6 °F 18.3 °F 30.00 in NE 3.9 mph 6.9 mph 49 % 0.00 in
21:20 35.6 °F 18.8 °F 30.00 in NNW 1.1 mph 4.0 mph 50 % 0.00 in
21:25 35.4 °F 18.1 °F 30.00 in NNW 1.8 mph 3.5 mph 49 % 0.00 in
21:30 35.3 °F 18.5 °F 30.00 in NW 1.5 mph 4.6 mph 50 % 0.00 in
21:35 35.2 °F 18.4 °F 30.01 in North 2.5 mph 5.8 mph 50 % 0.00 in
21:40 35.1 °F 18.3 °F 30.00 in WNW 4.3 mph 5.8 mph 50 % 0.00 in
21:50 35.0 °F 18.2 °F 30.01 in WNW 3.0 mph 3.5 mph 50 % 0.00 in
21:55 35.0 °F 18.7 °F 30.02 in NNE 2.2 mph 3.5 mph 51 % 0.00 in
22:00 34.9 °F 18.1 °F 30.02 in NNE 4.4 mph 8.1 mph 50 % 0.00 in
22:06 34.9 °F 18.1 °F 30.02 in North 3.5 mph 6.0 mph 50 % 0.00 in
22:11 34.9 °F 18.1 °F 30.01 in North 4.0 mph 5.8 mph 50 % 0.00 in
22:16 34.8 °F 18.5 °F 30.02 in NNE 2.2 mph 3.5 mph 51 % 0.00 in
22:21 34.8 °F 18.5 °F 30.02 in NNW 2.7 mph 3.5 mph 51 % 0.00 in
22:26 34.8 °F 18.9 °F 30.02 in NNW 0.7 mph 2.3 mph 52 % 0.00 in
22:31 34.7 °F 19.3 °F 30.02 in NE 0.2 mph 3.5 mph 53 % 0.00 in
22:36 34.7 °F 18.9 °F 30.03 in NNW 2.3 mph 3.5 mph 52 % 0.00 in
22:41 34.7 °F 18.9 °F 30.03 in NNW 4.0 mph 4.6 mph 52 % 0.00 in
22:46 34.7 °F 18.4 °F 30.03 in NNW 2.4 mph 4.6 mph 51 % 0.00 in
22:51 34.8 °F 18.5 °F 30.04 in North 0.1 mph 3.5 mph 51 % 0.00 in
22:57 34.8 °F 18.5 °F 30.04 in North 1.4 mph 4.6 mph 51 % 0.00 in
23:02 34.9 °F 18.6 °F 30.04 in North 0.3 mph 3.5 mph 51 % 0.00 in
23:07 34.9 °F 18.6 °F 30.04 in North 1.5 mph 3.5 mph 51 % 0.00 in
23:17 35.1 °F 18.8 °F 30.04 in North 3.8 mph 6.0 mph 51 % 0.00 in
23:22 35.1 °F 18.8 °F 30.04 in North 3.6 mph 4.6 mph 51 % 0.00 in
23:27 35.1 °F 19.2 °F 30.04 in North 4.5 mph 5.8 mph 52 % 0.00 in
23:32 35.1 °F 18.8 °F 30.04 in North 2.7 mph 5.0 mph 51 % 0.00 in
23:37 35.1 °F 18.8 °F 30.04 in North 2.2 mph 4.0 mph 51 % 0.00 in
23:42 35.1 °F 18.8 °F 30.04 in NE 2.4 mph 3.5 mph 51 % 0.00 in
23:48 35.1 °F 19.2 °F 30.03 in NNE 5.5 mph 7.0 mph 52 % 0.00 in
23:53 35.1 °F 19.2 °F 30.04 in ENE 1.0 mph 3.5 mph 52 % 0.00 in
23:58 35.1 °F 19.2 °F 30.04 in ENE 2.7 mph 3.5 mph 52 % 0.00 in
Crab Meadow Weather
Compliments of Weather Underground - 2.75 mb

Script developed by  Jim McMurry - jmcmurry@mwt.net Adapted for the template by  Wim van der Kuil - Leuven-Template.eu

Dew Point: The dew point is the temperature to which air must be cooled, at constant barometric pressure, for water vapor to condense into water. The condensed water is called dew. When the dew point temperature falls below freezing it is called the frost point, as the water no longer creates dew but instead creates frost. The dew point is associated with relative humidity. A high relative humidity indicates that the dew point is closer to the current air temperature. If the relative humidity is 100%, the dew point is equal to the current temperature. Given a constant dew point, an increase in temperature will lead to a decrease in relative humidity.